Flight Track Log - Related Links

Times and Time Zones

All times are in EDT time to prevent confusion due to time zone crossing. See the N233RC flight status page for this flight to view local times or setup timezone preferences in your user account.

Time Position Orientation Groundspeed Altitude Reporting Facility
EDT Latitude Longitude Course Direction KTS MPH feet Rate Location/Type
Sun 06:48:40 PM 45.3006 -84.9703 157° South 174 200 6,300  Level Minneapolis Center
Sun 06:49:42 PM 45.2508 -84.9767 185° South 174 200 8,100 1,694 Climbing Minneapolis Center
Sun 06:50:44 PM 45.1997 -84.9811 184° South 175 201 9,800 1,742 Climbing Minneapolis Center
Sun 06:51:46 PM 45.1458 -84.9708 172° South 189 217 11,700 1,548 Climbing Minneapolis Center
Sun 06:52:00 PM 45.4066 -84.9052 163° South  Level FlightAware Approximate
Sun 06:52:48 PM 45.0808 -84.9317 157° South 209 241 13,000  Level Minneapolis Center
Sun 06:53:00 PM 45.3645 -84.8872 163° South  Level FlightAware Approximate
Sun 06:53:50 PM 45.0128 -84.8997 162° South 240 276 13,000  Level Minneapolis Center
Sun 06:54:00 PM 45.3229 -84.8665 157° South  Level Estimated
Sun 06:54:52 PM 44.9314 -84.8642 163° South 281 323 12,900  Level Minneapolis Center
Sun 06:55:54 PM 44.8575 -84.8303 162° South 283 326 12,900  Level Minneapolis Center
Sun 06:56:56 PM 44.7878 -84.7950 160° South 280 322 12,900  Level Minneapolis Center
Sun 06:57:59 PM 44.7147 -84.7528 158° South 279 321 12,900  Level Minneapolis Center
Sun 06:59:01 PM 44.6428 -84.7094 157° South 280 322 12,900 48 Level Minneapolis Center
Sun 07:00:03 PM 44.5561 -84.6608 158° South 280 322 13,000 48 Climbing Minneapolis Center
Sun 07:01:05 PM 44.4817 -84.6192 158° South 282 325 13,000  Level Minneapolis Center
Sun 07:02:07 PM 44.4011 -84.5742 158° South 287 330 13,000  Level Minneapolis Center
Sun 07:03:09 PM 44.3278 -84.5350 159° South 289 333 13,000  Level Minneapolis Center
Sun 07:04:11 PM 44.2481 -84.4925 159° South 287 330 13,000 -48 Level Minneapolis Center
Sun 07:05:13 PM 44.1692 -84.4497 159° South 286 329 12,900 -48 Descending Minneapolis Center
Sun 07:06:15 PM 44.0969 -84.4086 158° South 285 328 12,900  Level Minneapolis Center
Sun 07:08:07 PM 43.9608 -84.3317 158° South 285 328 12,900  Level Cleveland Center
Sun 07:09:09 PM 43.8886 -84.2864 156° South 285 328 12,900  Level Cleveland Center
Sun 07:10:24 PM 43.8014 -84.2347 157° South 284 327 12,900  Level Minneapolis Center
Sun 07:11:14 PM 43.7417 -84.1994 157° South 286 329 12,900  Level Cleveland Center
Sun 07:12:16 PM 43.6686 -84.1567 157° South 286 329 12,900  Level Cleveland Center
Sun 07:13:18 PM 43.5803 -84.1075 158° South 286 329 12,900 -242 Level Cleveland Center
Sun 07:14:20 PM 43.5067 -84.0689 159° South 285 328 12,400 -968 Descending Cleveland Center
Sun 07:15:22 PM 43.4300 -84.0333 161° South 288 331 10,900 -677 Descending Cleveland Center
Sun 07:16:24 PM 43.3653 -83.9953 157° South 257 296 11,000 -145 Climbing Cleveland Center
Sun 07:17:26 PM 43.2972 -83.9411 150° Southeast 250 288 10,600 -1,161 Descending Cleveland Center
Sun 07:18:28 PM 43.2372 -83.8919 149° Southeast 250 288 8,600 -1,742 Descending Cleveland Center
Sun 07:19:30 PM 43.1764 -83.8522 155° Southeast 233 268 7,000 -1,536 Descending Cleveland Center
Sun 07:20:33 PM 43.1175 -83.8194 158° South 222 255 5,400 -1,536 Descending Cleveland Center
Sun 07:21:35 PM 43.0647 -83.7914 159° South 191 220 3,800 -1,258 Descending Cleveland Center
Sun 07:23:39 PM 42.9981 -83.7458 154° Southeast 127 146 1,500 -968 Descending Cleveland Center
Sun 07:24:41 PM 42.9672 -83.7433 177° South 108 124 800 -677 Descending Cleveland Center
Sun 07:26:00 PM 42.9654 -83.7437 154° Southeast  Level Estimated
Sun 07:33:00 PM 42.9654 -83.7437 154° Southeast  Level Estimated

Login

Don't have an account? Register now (free) for customized features, flight alerts, and more!